sensor_id;sensor_type;location;lat;lon;timestamp;temperature;humidity
4548;DHT22;2286;51.570;7.090;2023-07-20T00:01:50;17.20;1.00
4548;DHT22;2286;51.570;7.090;2023-07-20T00:04:16;17.20;1.00
4548;DHT22;2286;51.570;7.090;2023-07-20T00:06:43;17.20;86.50
4548;DHT22;2286;51.570;7.090;2023-07-20T00:09:11;17.20;1.00
4548;DHT22;2286;51.570;7.090;2023-07-20T00:11:39;17.20;21.90
4548;DHT22;2286;51.570;7.090;2023-07-20T00:14:06;17.20;53.80
4548;DHT22;2286;51.570;7.090;2023-07-20T00:16:33;17.10;99.90
4548;DHT22;2286;51.570;7.090;2023-07-20T00:19:01;17.10;99.90
4548;DHT22;2286;51.570;7.090;2023-07-20T00:21:28;17.10;99.90
4548;DHT22;2286;51.570;7.090;2023-07-20T00:23:55;17.10;99.90
4548;DHT22;2286;51.570;7.090;2023-07-20T00:26:22;17.10;1.00
4548;DHT22;2286;51.570;7.090;2023-07-20T00:28:50;17.10;1.00
4548;DHT22;2286;51.570;7.090;2023-07-20T00:31:17;17.10;1.00
4548;DHT22;2286;51.570;7.090;2023-07-20T00:33:44;17.10;1.00
4548;DHT22;2286;51.570;7.090;2023-07-20T00:36:12;17.00;99.90
4548;DHT22;2286;51.570;7.090;2023-07-20T00:38:39;17.00;99.90
4548;DHT22;2286;51.570;7.090;2023-07-20T00:41:06;16.90;99.90
4548;DHT22;2286;51.570;7.090;2023-07-20T00:43:33;16.90;1.00
4548;DHT22;2286;51.570;7.090;2023-07-20T00:46:00;16.90;1.00
4548;DHT22;2286;51.570;7.090;2023-07-20T00:48:28;16.90;1.00
4548;DHT22;2286;51.570;7.090;2023-07-20T00:50:55;16.90;1.00
4548;DHT22;2286;51.570;7.090;2023-07-20T00:53:24;16.90;1.00
4548;DHT22;2286;51.570;7.090;2023-07-20T00:55:51;16.90;1.00
4548;DHT22;2286;51.570;7.090;2023-07-20T00:58:18;16.90;1.00
4548;DHT22;2286;51.570;7.090;2023-07-20T01:00:45;16.90;1.00
4548;DHT22;2286;51.570;7.090;2023-07-20T01:03:13;16.80;1.30
4548;DHT22;2286;51.570;7.090;2023-07-20T01:05:43;16.80;1.00
4548;DHT22;2286;51.570;7.090;2023-07-20T01:08:15;16.80;1.00
4548;DHT22;2286;51.570;7.090;2023-07-20T01:10:53;16.80;1.00
4548;DHT22;2286;51.570;7.090;2023-07-20T01:13:21;16.80;99.90
4548;DHT22;2286;51.570;7.090;2023-07-20T01:15:56;16.80;75.20
4548;DHT22;2286;51.570;7.090;2023-07-20T01:18:24;16.80;99.90
4548;DHT22;2286;51.570;7.090;2023-07-20T01:20:52;16.80;60.20
4548;DHT22;2286;51.570;7.090;2023-07-20T01:23:38;16.80;99.90
4548;DHT22;2286;51.570;7.090;2023-07-20T01:26:36;16.80;99.90
4548;DHT22;2286;51.570;7.090;2023-07-20T01:29:17;16.80;99.90
4548;DHT22;2286;51.570;7.090;2023-07-20T01:31:52;16.80;1.00
4548;DHT22;2286;51.570;7.090;2023-07-20T01:34:20;16.70;99.90
4548;DHT22;2286;51.570;7.090;2023-07-20T01:36:50;16.70;99.90
4548;DHT22;2286;51.570;7.090;2023-07-20T01:39:19;16.60;1.00
4548;DHT22;2286;51.570;7.090;2023-07-20T01:41:47;16.50;1.00
4548;DHT22;2286;51.570;7.090;2023-07-20T01:44:14;16.50;99.90
4548;DHT22;2286;51.570;7.090;2023-07-20T01:46:40;16.50;99.90
4548;DHT22;2286;51.570;7.090;2023-07-20T01:49:09;16.50;99.90
4548;DHT22;2286;51.570;7.090;2023-07-20T01:51:35;16.50;99.90
4548;DHT22;2286;51.570;7.090;2023-07-20T01:54:02;16.50;99.90
4548;DHT22;2286;51.570;7.090;2023-07-20T01:56:29;16.60;98.10
4548;DHT22;2286;51.570;7.090;2023-07-20T01:58:56;16.60;99.90
4548;DHT22;2286;51.570;7.090;2023-07-20T02:01:23;16.70;1.00
4548;DHT22;2286;51.570;7.090;2023-07-20T02:03:49;16.70;1.00
4548;DHT22;2286;51.570;7.090;2023-07-20T02:06:18;16.70;1.00
4548;DHT22;2286;51.570;7.090;2023-07-20T02:08:44;16.70;1.00
4548;DHT22;2286;51.570;7.090;2023-07-20T02:11:11;16.70;18.90
4548;DHT22;2286;51.570;7.090;2023-07-20T02:13:38;16.80;1.00
4548;DHT22;2286;51.570;7.090;2023-07-20T02:16:05;16.80;1.00
4548;DHT22;2286;51.570;7.090;2023-07-20T02:18:31;16.90;99.90
4548;DHT22;2286;51.570;7.090;2023-07-20T02:20:59;16.80;99.90
4548;DHT22;2286;51.570;7.090;2023-07-20T02:23:27;16.70;1.00
4548;DHT22;2286;51.570;7.090;2023-07-20T02:25:54;16.60;99.90
4548;DHT22;2286;51.570;7.090;2023-07-20T02:28:21;16.50;1.00
4548;DHT22;2286;51.570;7.090;2023-07-20T02:30:49;16.40;1.00
4548;DHT22;2286;51.570;7.090;2023-07-20T02:33:16;16.30;1.00
4548;DHT22;2286;51.570;7.090;2023-07-20T02:35:43;16.30;99.90
4548;DHT22;2286;51.570;7.090;2023-07-20T02:38:10;16.30;99.90
4548;DHT22;2286;51.570;7.090;2023-07-20T02:40:38;16.20;99.90
4548;DHT22;2286;51.570;7.090;2023-07-20T02:43:05;16.20;99.90
4548;DHT22;2286;51.570;7.090;2023-07-20T02:45:32;16.10;99.90
4548;DHT22;2286;51.570;7.090;2023-07-20T02:47:59;16.10;99.90
4548;DHT22;2286;51.570;7.090;2023-07-20T02:50:26;16.00;99.90
4548;DHT22;2286;51.570;7.090;2023-07-20T02:52:53;16.00;99.90
4548;DHT22;2286;51.570;7.090;2023-07-20T02:55:20;16.00;99.90
4548;DHT22;2286;51.570;7.090;2023-07-20T02:57:49;16.00;99.90
4548;DHT22;2286;51.570;7.090;2023-07-20T03:00:16;15.90;99.90
4548;DHT22;2286;51.570;7.090;2023-07-20T03:02:44;16.00;99.90
4548;DHT22;2286;51.570;7.090;2023-07-20T03:05:13;15.90;99.90
4548;DHT22;2286;51.570;7.090;2023-07-20T03:07:42;15.90;99.90
4548;DHT22;2286;51.570;7.090;2023-07-20T03:10:10;15.80;99.90
4548;DHT22;2286;51.570;7.090;2023-07-20T03:12:38;15.80;99.90
4548;DHT22;2286;51.570;7.090;2023-07-20T03:15:08;15.80;99.90
4548;DHT22;2286;51.570;7.090;2023-07-20T03:17:35;15.80;99.90
4548;DHT22;2286;51.570;7.090;2023-07-20T03:20:02;15.80;99.90
4548;DHT22;2286;51.570;7.090;2023-07-20T03:22:30;15.80;99.90
4548;DHT22;2286;51.570;7.090;2023-07-20T03:24:58;15.70;99.90
4548;DHT22;2286;51.570;7.090;2023-07-20T03:27:25;15.70;99.90
4548;DHT22;2286;51.570;7.090;2023-07-20T03:29:54;15.70;99.90
4548;DHT22;2286;51.570;7.090;2023-07-20T03:32:22;15.60;99.90
4548;DHT22;2286;51.570;7.090;2023-07-20T03:34:49;15.60;99.90
4548;DHT22;2286;51.570;7.090;2023-07-20T03:37:16;15.50;99.90
4548;DHT22;2286;51.570;7.090;2023-07-20T03:39:43;15.60;99.90
4548;DHT22;2286;51.570;7.090;2023-07-20T03:42:10;15.60;99.90
4548;DHT22;2286;51.570;7.090;2023-07-20T03:44:37;15.60;99.90
4548;DHT22;2286;51.570;7.090;2023-07-20T03:47:05;15.70;99.90
4548;DHT22;2286;51.570;7.090;2023-07-20T03:49:34;15.70;99.90
4548;DHT22;2286;51.570;7.090;2023-07-20T03:52:01;15.80;99.90
4548;DHT22;2286;51.570;7.090;2023-07-20T03:54:28;15.80;99.90
4548;DHT22;2286;51.570;7.090;2023-07-20T03:56:55;15.80;99.90
4548;DHT22;2286;51.570;7.090;2023-07-20T03:59:22;15.70;99.90
4548;DHT22;2286;51.570;7.090;2023-07-20T04:01:49;15.80;99.90
4548;DHT22;2286;51.570;7.090;2023-07-20T04:04:16;15.80;99.90
4548;DHT22;2286;51.570;7.090;2023-07-20T04:06:45;15.80;99.90
4548;DHT22;2286;51.570;7.090;2023-07-20T04:09:12;15.80;99.90
4548;DHT22;2286;51.570;7.090;2023-07-20T04:11:39;15.80;99.90
4548;DHT22;2286;51.570;7.090;2023-07-20T04:14:07;15.70;99.90
4548;DHT22;2286;51.570;7.090;2023-07-20T04:16:34;15.70;99.90
4548;DHT22;2286;51.570;7.090;2023-07-20T04:19:01;15.60;99.90
4548;DHT22;2286;51.570;7.090;2023-07-20T04:21:28;15.60;99.90
4548;DHT22;2286;51.570;7.090;2023-07-20T04:23:56;15.70;99.90
4548;DHT22;2286;51.570;7.090;2023-07-20T04:26:24;15.60;99.90
4548;DHT22;2286;51.570;7.090;2023-07-20T04:28:51;15.60;99.90
4548;DHT22;2286;51.570;7.090;2023-07-20T04:31:18;15.50;99.90
4548;DHT22;2286;51.570;7.090;2023-07-20T04:33:45;15.40;99.90
4548;DHT22;2286;51.570;7.090;2023-07-20T04:36:12;15.40;99.90
4548;DHT22;2286;51.570;7.090;2023-07-20T04:38:42;15.40;99.90
4548;DHT22;2286;51.570;7.090;2023-07-20T04:41:10;15.40;99.90
4548;DHT22;2286;51.570;7.090;2023-07-20T04:43:41;15.40;99.90
4548;DHT22;2286;51.570;7.090;2023-07-20T04:46:08;15.50;99.90
4548;DHT22;2286;51.570;7.090;2023-07-20T04:48:35;15.60;99.90
4548;DHT22;2286;51.570;7.090;2023-07-20T04:51:03;15.50;99.90
4548;DHT22;2286;51.570;7.090;2023-07-20T04:53:30;15.60;99.90
4548;DHT22;2286;51.570;7.090;2023-07-20T04:55:57;15.60;99.90
4548;DHT22;2286;51.570;7.090;2023-07-20T04:58:26;15.70;99.90
4548;DHT22;2286;51.570;7.090;2023-07-20T05:00:53;15.70;99.90
4548;DHT22;2286;51.570;7.090;2023-07-20T05:03:20;15.70;99.90
4548;DHT22;2286;51.570;7.090;2023-07-20T05:05:47;15.70;99.90
4548;DHT22;2286;51.570;7.090;2023-07-20T05:08:14;15.70;99.90
4548;DHT22;2286;51.570;7.090;2023-07-20T05:10:41;15.70;99.90
4548;DHT22;2286;51.570;7.090;2023-07-20T05:13:08;15.80;99.90
4548;DHT22;2286;51.570;7.090;2023-07-20T05:15:37;15.80;99.90
4548;DHT22;2286;51.570;7.090;2023-07-20T05:18:04;15.80;99.90
4548;DHT22;2286;51.570;7.090;2023-07-20T05:20:31;15.90;99.90
4548;DHT22;2286;51.570;7.090;2023-07-20T05:22:59;16.00;99.90
4548;DHT22;2286;51.570;7.090;2023-07-20T05:25:26;16.00;99.90
4548;DHT22;2286;51.570;7.090;2023-07-20T05:27:53;16.00;99.90
4548;DHT22;2286;51.570;7.090;2023-07-20T05:30:21;16.10;99.90
4548;DHT22;2286;51.570;7.090;2023-07-20T05:32:49;16.10;99.90
4548;DHT22;2286;51.570;7.090;2023-07-20T05:35:18;16.10;99.90
4548;DHT22;2286;51.570;7.090;2023-07-20T05:37:45;16.10;99.90
4548;DHT22;2286;51.570;7.090;2023-07-20T05:40:13;16.20;99.90
4548;DHT22;2286;51.570;7.090;2023-07-20T05:42:44;16.20;99.90
4548;DHT22;2286;51.570;7.090;2023-07-20T05:45:11;16.20;99.90
4548;DHT22;2286;51.570;7.090;2023-07-20T05:47:39;16.20;99.90
4548;DHT22;2286;51.570;7.090;2023-07-20T05:50:08;16.10;99.90
4548;DHT22;2286;51.570;7.090;2023-07-20T05:52:35;16.00;99.90
4548;DHT22;2286;51.570;7.090;2023-07-20T05:55:04;16.00;99.90
4548;DHT22;2286;51.570;7.090;2023-07-20T05:57:31;15.90;99.90
4548;DHT22;2286;51.570;7.090;2023-07-20T05:59:58;15.90;99.90
4548;DHT22;2286;51.570;7.090;2023-07-20T06:02:25;15.90;99.90
4548;DHT22;2286;51.570;7.090;2023-07-20T06:04:52;15.90;99.90
4548;DHT22;2286;51.570;7.090;2023-07-20T06:07:21;16.00;99.90
4548;DHT22;2286;51.570;7.090;2023-07-20T06:09:48;16.10;99.90
4548;DHT22;2286;51.570;7.090;2023-07-20T06:12:15;16.00;99.90
4548;DHT22;2286;51.570;7.090;2023-07-20T06:14:42;16.00;99.90
4548;DHT22;2286;51.570;7.090;2023-07-20T06:17:09;16.00;99.90
4548;DHT22;2286;51.570;7.090;2023-07-20T06:19:36;16.00;99.90
4548;DHT22;2286;51.570;7.090;2023-07-20T06:22:04;16.00;99.90
4548;DHT22;2286;51.570;7.090;2023-07-20T06:24:32;15.90;99.90
4548;DHT22;2286;51.570;7.090;2023-07-20T06:26:59;15.90;99.90
4548;DHT22;2286;51.570;7.090;2023-07-20T06:29:26;15.90;99.90
4548;DHT22;2286;51.570;7.090;2023-07-20T06:31:53;16.00;99.90
4548;DHT22;2286;51.570;7.090;2023-07-20T06:34:20;16.10;99.90
4548;DHT22;2286;51.570;7.090;2023-07-20T06:36:47;16.20;1.00
4548;DHT22;2286;51.570;7.090;2023-07-20T06:39:14;16.30;1.00
4548;DHT22;2286;51.570;7.090;2023-07-20T06:41:43;16.30;1.00
4548;DHT22;2286;51.570;7.090;2023-07-20T06:44:10;16.40;1.00
4548;DHT22;2286;51.570;7.090;2023-07-20T06:46:37;16.30;1.00
4548;DHT22;2286;51.570;7.090;2023-07-20T06:49:06;16.20;99.90
4548;DHT22;2286;51.570;7.090;2023-07-20T06:51:34;16.10;1.00
4548;DHT22;2286;51.570;7.090;2023-07-20T06:54:01;16.00;99.90
4548;DHT22;2286;51.570;7.090;2023-07-20T06:56:30;16.00;99.90
4548;DHT22;2286;51.570;7.090;2023-07-20T06:58:58;16.10;1.00
4548;DHT22;2286;51.570;7.090;2023-07-20T07:01:25;16.10;1.00
4548;DHT22;2286;51.570;7.090;2023-07-20T07:03:52;16.00;1.00
4548;DHT22;2286;51.570;7.090;2023-07-20T07:06:19;16.10;1.00
4548;DHT22;2286;51.570;7.090;2023-07-20T07:08:48;16.10;1.00
4548;DHT22;2286;51.570;7.090;2023-07-20T07:11:15;16.20;99.90
4548;DHT22;2286;51.570;7.090;2023-07-20T07:13:42;16.20;99.90
4548;DHT22;2286;51.570;7.090;2023-07-20T07:16:10;16.20;1.00
4548;DHT22;2286;51.570;7.090;2023-07-20T07:18:37;16.30;99.90
4548;DHT22;2286;51.570;7.090;2023-07-20T07:21:05;16.40;99.90
4548;DHT22;2286;51.570;7.090;2023-07-20T07:23:32;16.50;1.00
4548;DHT22;2286;51.570;7.090;2023-07-20T07:25:59;16.80;1.00
4548;DHT22;2286;51.570;7.090;2023-07-20T07:28:28;17.10;99.90
4548;DHT22;2286;51.570;7.090;2023-07-20T07:30:55;17.40;1.00
4548;DHT22;2286;51.570;7.090;2023-07-20T07:33:23;17.60;1.00
4548;DHT22;2286;51.570;7.090;2023-07-20T07:35:51;17.90;97.00
4548;DHT22;2286;51.570;7.090;2023-07-20T07:38:18;18.10;60.50
4548;DHT22;2286;51.570;7.090;2023-07-20T07:40:45;18.40;99.90
4548;DHT22;2286;51.570;7.090;2023-07-20T07:43:12;18.60;1.00
4548;DHT22;2286;51.570;7.090;2023-07-20T07:45:40;18.70;1.00
4548;DHT22;2286;51.570;7.090;2023-07-20T07:48:08;18.80;99.90
4548;DHT22;2286;51.570;7.090;2023-07-20T07:50:38;18.70;1.00
4548;DHT22;2286;51.570;7.090;2023-07-20T07:53:05;18.50;1.00
4548;DHT22;2286;51.570;7.090;2023-07-20T07:55:33;18.20;99.90
4548;DHT22;2286;51.570;7.090;2023-07-20T07:58:00;18.00;1.00
4548;DHT22;2286;51.570;7.090;2023-07-20T08:00:27;17.90;1.00
4548;DHT22;2286;51.570;7.090;2023-07-20T08:02:54;18.00;1.00
4548;DHT22;2286;51.570;7.090;2023-07-20T08:05:21;18.10;99.90
4548;DHT22;2286;51.570;7.090;2023-07-20T08:07:49;18.00;99.90
4548;DHT22;2286;51.570;7.090;2023-07-20T08:10:17;18.00;99.90
4548;DHT22;2286;51.570;7.090;2023-07-20T08:12:44;18.10;40.90
4548;DHT22;2286;51.570;7.090;2023-07-20T08:15:11;18.30;1.00
4548;DHT22;2286;51.570;7.090;2023-07-20T08:17:40;18.40;32.30
4548;DHT22;2286;51.570;7.090;2023-07-20T08:20:08;18.40;12.80
4548;DHT22;2286;51.570;7.090;2023-07-20T08:22:37;18.80;1.00
4548;DHT22;2286;51.570;7.090;2023-07-20T08:25:07;19.30;99.90
4548;DHT22;2286;51.570;7.090;2023-07-20T08:27:34;19.60;1.00
4548;DHT22;2286;51.570;7.090;2023-07-20T08:30:01;20.00;99.90
4548;DHT22;2286;51.570;7.090;2023-07-20T08:32:28;20.10;1.00
4548;DHT22;2286;51.570;7.090;2023-07-20T08:34:55;20.00;14.10
4548;DHT22;2286;51.570;7.090;2023-07-20T08:37:22;19.90;1.00
4548;DHT22;2286;51.570;7.090;2023-07-20T08:39:50;20.00;1.00
4548;DHT22;2286;51.570;7.090;2023-07-20T08:42:18;20.10;99.90
4548;DHT22;2286;51.570;7.090;2023-07-20T08:44:47;20.10;99.90
4548;DHT22;2286;51.570;7.090;2023-07-20T08:47:16;20.10;99.90
4548;DHT22;2286;51.570;7.090;2023-07-20T08:49:43;20.10;1.00
4548;DHT22;2286;51.570;7.090;2023-07-20T08:52:11;20.60;1.00
4548;DHT22;2286;51.570;7.090;2023-07-20T08:54:39;21.00;1.00
4548;DHT22;2286;51.570;7.090;2023-07-20T08:57:06;21.10;99.90
4548;DHT22;2286;51.570;7.090;2023-07-20T08:59:36;21.00;99.90
4548;DHT22;2286;51.570;7.090;2023-07-20T09:02:05;20.50;99.90
4548;DHT22;2286;51.570;7.090;2023-07-20T09:04:32;20.20;99.90
4548;DHT22;2286;51.570;7.090;2023-07-20T09:06:59;19.90;99.90
4548;DHT22;2286;51.570;7.090;2023-07-20T09:09:27;20.00;99.90
4548;DHT22;2286;51.570;7.090;2023-07-20T09:11:54;20.10;99.90
4548;DHT22;2286;51.570;7.090;2023-07-20T09:14:20;20.10;99.90
4548;DHT22;2286;51.570;7.090;2023-07-20T09:16:53;20.30;99.90
4548;DHT22;2286;51.570;7.090;2023-07-20T09:19:20;20.30;99.90
4548;DHT22;2286;51.570;7.090;2023-07-20T09:21:48;20.80;99.90
4548;DHT22;2286;51.570;7.090;2023-07-20T09:24:18;21.20;99.90
4548;DHT22;2286;51.570;7.090;2023-07-20T09:26:47;21.10;99.90
4548;DHT22;2286;51.570;7.090;2023-07-20T09:29:18;20.90;99.90
4548;DHT22;2286;51.570;7.090;2023-07-20T09:31:58;20.70;99.90
4548;DHT22;2286;51.570;7.090;2023-07-20T09:34:26;20.50;99.90
4548;DHT22;2286;51.570;7.090;2023-07-20T09:36:53;20.30;99.90
4548;DHT22;2286;51.570;7.090;2023-07-20T09:39:20;20.40;99.90
4548;DHT22;2286;51.570;7.090;2023-07-20T09:41:47;20.60;99.90
4548;DHT22;2286;51.570;7.090;2023-07-20T09:44:15;21.10;99.90
4548;DHT22;2286;51.570;7.090;2023-07-20T09:49:11;21.80;99.90
4548;DHT22;2286;51.570;7.090;2023-07-20T09:51:38;21.80;99.90
4548;DHT22;2286;51.570;7.090;2023-07-20T09:54:05;21.70;99.90
4548;DHT22;2286;51.570;7.090;2023-07-20T09:56:33;21.40;99.90
4548;DHT22;2286;51.570;7.090;2023-07-20T09:59:01;21.20;99.90
4548;DHT22;2286;51.570;7.090;2023-07-20T10:01:29;21.40;99.90
4548;DHT22;2286;51.570;7.090;2023-07-20T10:03:58;22.00;99.90
4548;DHT22;2286;51.570;7.090;2023-07-20T10:06:30;22.80;99.90
4548;DHT22;2286;51.570;7.090;2023-07-20T10:09:01;23.50;99.90
4548;DHT22;2286;51.570;7.090;2023-07-20T10:11:31;24.00;99.90
4548;DHT22;2286;51.570;7.090;2023-07-20T10:13:59;24.10;99.90
4548;DHT22;2286;51.570;7.090;2023-07-20T10:16:31;23.60;99.90
4548;DHT22;2286;51.570;7.090;2023-07-20T10:19:03;23.10;99.90
4548;DHT22;2286;51.570;7.090;2023-07-20T10:21:35;22.70;99.90
4548;DHT22;2286;51.570;7.090;2023-07-20T10:24:05;22.60;99.90
4548;DHT22;2286;51.570;7.090;2023-07-20T10:26:33;22.70;99.90
4548;DHT22;2286;51.570;7.090;2023-07-20T10:29:01;23.00;99.90
4548;DHT22;2286;51.570;7.090;2023-07-20T10:31:29;23.70;99.90
4548;DHT22;2286;51.570;7.090;2023-07-20T10:33:57;23.30;99.90
4548;DHT22;2286;51.570;7.090;2023-07-20T10:36:25;23.70;99.90
4548;DHT22;2286;51.570;7.090;2023-07-20T10:38:55;24.60;99.90
4548;DHT22;2286;51.570;7.090;2023-07-20T10:41:28;25.40;99.90
4548;DHT22;2286;51.570;7.090;2023-07-20T10:43:58;26.70;99.90
4548;DHT22;2286;51.570;7.090;2023-07-20T10:46:43;28.40;99.90
4548;DHT22;2286;51.570;7.090;2023-07-20T10:49:11;29.20;99.90
4548;DHT22;2286;51.570;7.090;2023-07-20T10:51:40;29.00;99.90
4548;DHT22;2286;51.570;7.090;2023-07-20T10:56:57;28.70;99.90
4548;DHT22;2286;51.570;7.090;2023-07-20T10:59:37;29.20;99.90
4548;DHT22;2286;51.570;7.090;2023-07-20T11:02:06;30.30;99.90
4548;DHT22;2286;51.570;7.090;2023-07-20T11:04:41;31.40;99.90
4548;DHT22;2286;51.570;7.090;2023-07-20T11:07:08;31.30;99.90
4548;DHT22;2286;51.570;7.090;2023-07-20T11:09:38;29.90;99.90
4548;DHT22;2286;51.570;7.090;2023-07-20T11:12:12;28.80;99.90
4548;DHT22;2286;51.570;7.090;2023-07-20T11:14:41;27.90;99.90
4548;DHT22;2286;51.570;7.090;2023-07-20T11:17:12;27.50;99.90
4548;DHT22;2286;51.570;7.090;2023-07-20T11:19:39;27.00;99.90
4548;DHT22;2286;51.570;7.090;2023-07-20T11:22:07;28.20;99.90
4548;DHT22;2286;51.570;7.090;2023-07-20T11:24:39;29.50;99.90
4548;DHT22;2286;51.570;7.090;2023-07-20T11:27:06;30.60;99.90
4548;DHT22;2286;51.570;7.090;2023-07-20T11:29:35;30.40;99.90
4548;DHT22;2286;51.570;7.090;2023-07-20T11:32:03;30.30;99.90
4548;DHT22;2286;51.570;7.090;2023-07-20T11:34:31;30.80;99.90
4548;DHT22;2286;51.570;7.090;2023-07-20T11:36:58;31.20;99.90
4548;DHT22;2286;51.570;7.090;2023-07-20T11:39:25;31.40;99.90
4548;DHT22;2286;51.570;7.090;2023-07-20T11:41:55;31.50;99.90
4548;DHT22;2286;51.570;7.090;2023-07-20T11:44:23;31.20;99.90
4548;DHT22;2286;51.570;7.090;2023-07-20T11:47:00;30.70;99.90
4548;DHT22;2286;51.570;7.090;2023-07-20T11:49:28;30.70;99.90
4548;DHT22;2286;51.570;7.090;2023-07-20T11:51:57;30.20;99.90
4548;DHT22;2286;51.570;7.090;2023-07-20T11:54:24;30.30;99.90
4548;DHT22;2286;51.570;7.090;2023-07-20T11:56:55;30.40;99.90
4548;DHT22;2286;51.570;7.090;2023-07-20T11:59:22;30.30;99.90
4548;DHT22;2286;51.570;7.090;2023-07-20T12:01:49;31.50;99.90
4548;DHT22;2286;51.570;7.090;2023-07-20T12:04:16;32.30;99.90
4548;DHT22;2286;51.570;7.090;2023-07-20T12:06:45;33.80;99.90
4548;DHT22;2286;51.570;7.090;2023-07-20T12:09:14;34.20;99.90
4548;DHT22;2286;51.570;7.090;2023-07-20T12:11:43;33.00;99.90
4548;DHT22;2286;51.570;7.090;2023-07-20T12:14:12;33.20;99.90
4548;DHT22;2286;51.570;7.090;2023-07-20T12:16:39;32.50;99.90
4548;DHT22;2286;51.570;7.090;2023-07-20T12:19:07;33.10;99.90
4548;DHT22;2286;51.570;7.090;2023-07-20T12:21:35;33.00;99.90
4548;DHT22;2286;51.570;7.090;2023-07-20T12:24:03;34.20;99.90
4548;DHT22;2286;51.570;7.090;2023-07-20T12:26:31;35.70;99.90
4548;DHT22;2286;51.570;7.090;2023-07-20T12:28:59;36.20;99.90
4548;DHT22;2286;51.570;7.090;2023-07-20T12:31:27;36.30;99.90
4548;DHT22;2286;51.570;7.090;2023-07-20T12:33:56;35.40;99.90
4548;DHT22;2286;51.570;7.090;2023-07-20T12:36:24;36.70;99.90
4548;DHT22;2286;51.570;7.090;2023-07-20T12:38:51;36.90;99.90
4548;DHT22;2286;51.570;7.090;2023-07-20T12:41:18;36.80;99.90
4548;DHT22;2286;51.570;7.090;2023-07-20T12:43:46;35.10;99.90
4548;DHT22;2286;51.570;7.090;2023-07-20T12:46:13;33.10;99.90
4548;DHT22;2286;51.570;7.090;2023-07-20T12:48:41;32.00;99.90
4548;DHT22;2286;51.570;7.090;2023-07-20T12:51:09;30.90;97.90
4548;DHT22;2286;51.570;7.090;2023-07-20T12:53:37;31.00;99.20
4548;DHT22;2286;51.570;7.090;2023-07-20T12:56:05;32.20;99.90
4548;DHT22;2286;51.570;7.090;2023-07-20T12:58:32;34.70;99.90
4548;DHT22;2286;51.570;7.090;2023-07-20T13:00:59;36.10;99.90
4548;DHT22;2286;51.570;7.090;2023-07-20T13:03:26;36.60;99.90
4548;DHT22;2286;51.570;7.090;2023-07-20T13:05:54;35.60;99.90
4548;DHT22;2286;51.570;7.090;2023-07-20T13:08:21;33.90;99.90
4548;DHT22;2286;51.570;7.090;2023-07-20T13:10:51;31.80;96.50
4548;DHT22;2286;51.570;7.090;2023-07-20T13:13:18;30.10;92.40
4548;DHT22;2286;51.570;7.090;2023-07-20T13:15:45;30.60;94.10
4548;DHT22;2286;51.570;7.090;2023-07-20T13:18:13;32.80;99.90
4548;DHT22;2286;51.570;7.090;2023-07-20T13:20:40;34.10;99.90
4548;DHT22;2286;51.570;7.090;2023-07-20T13:23:09;34.90;99.90
4548;DHT22;2286;51.570;7.090;2023-07-20T13:25:36;36.00;99.90
4548;DHT22;2286;51.570;7.090;2023-07-20T13:28:03;36.60;99.90
4548;DHT22;2286;51.570;7.090;2023-07-20T13:30:30;37.00;99.90
4548;DHT22;2286;51.570;7.090;2023-07-20T13:32:57;37.10;99.90
4548;DHT22;2286;51.570;7.090;2023-07-20T13:35:24;35.70;99.90
4548;DHT22;2286;51.570;7.090;2023-07-20T13:37:51;36.20;99.90
4548;DHT22;2286;51.570;7.090;2023-07-20T13:40:19;33.90;98.00
4548;DHT22;2286;51.570;7.090;2023-07-20T13:42:48;31.70;92.10
4548;DHT22;2286;51.570;7.090;2023-07-20T13:45:15;30.90;90.50
4548;DHT22;2286;51.570;7.090;2023-07-20T13:47:43;30.50;87.80
4548;DHT22;2286;51.570;7.090;2023-07-20T13:50:10;29.40;81.80
4548;DHT22;2286;51.570;7.090;2023-07-20T13:52:37;28.30;76.70
4548;DHT22;2286;51.570;7.090;2023-07-20T13:55:05;28.10;75.90
4548;DHT22;2286;51.570;7.090;2023-07-20T13:57:33;28.20;77.20
4548;DHT22;2286;51.570;7.090;2023-07-20T14:00:00;29.80;86.50
4548;DHT22;2286;51.570;7.090;2023-07-20T14:02:29;31.50;92.40
4548;DHT22;2286;51.570;7.090;2023-07-20T14:04:56;31.70;92.50
4548;DHT22;2286;51.570;7.090;2023-07-20T14:07:24;31.60;92.20
4548;DHT22;2286;51.570;7.090;2023-07-20T14:09:51;31.70;92.00
4548;DHT22;2286;51.570;7.090;2023-07-20T14:12:17;31.40;91.30
4548;DHT22;2286;51.570;7.090;2023-07-20T14:14:46;30.80;88.90
4548;DHT22;2286;51.570;7.090;2023-07-20T14:17:13;30.20;86.30
4548;DHT22;2286;51.570;7.090;2023-07-20T14:19:40;29.90;85.20
4548;DHT22;2286;51.570;7.090;2023-07-20T14:22:07;29.10;79.20
4548;DHT22;2286;51.570;7.090;2023-07-20T14:24:34;28.10;74.50
4548;DHT22;2286;51.570;7.090;2023-07-20T14:27:01;28.20;77.50
4548;DHT22;2286;51.570;7.090;2023-07-20T14:29:28;28.10;75.70
4548;DHT22;2286;51.570;7.090;2023-07-20T14:31:58;27.30;72.40
4548;DHT22;2286;51.570;7.090;2023-07-20T14:34:26;27.60;74.10
4548;DHT22;2286;51.570;7.090;2023-07-20T14:36:52;27.60;73.90
4548;DHT22;2286;51.570;7.090;2023-07-20T14:39:20;27.50;74.70
4548;DHT22;2286;51.570;7.090;2023-07-20T14:41:49;27.40;73.40
4548;DHT22;2286;51.570;7.090;2023-07-20T14:44:16;27.40;75.30
4548;DHT22;2286;51.570;7.090;2023-07-20T14:46:43;27.40;75.30
4548;DHT22;2286;51.570;7.090;2023-07-20T14:49:12;27.60;76.00
4548;DHT22;2286;51.570;7.090;2023-07-20T14:51:39;27.80;77.80
4548;DHT22;2286;51.570;7.090;2023-07-20T14:54:09;28.00;77.80
4548;DHT22;2286;51.570;7.090;2023-07-20T14:56:38;28.20;78.30
4548;DHT22;2286;51.570;7.090;2023-07-20T14:59:05;28.50;79.80
4548;DHT22;2286;51.570;7.090;2023-07-20T15:01:32;28.80;81.20
4548;DHT22;2286;51.570;7.090;2023-07-20T15:03:59;28.90;82.00
4548;DHT22;2286;51.570;7.090;2023-07-20T15:06:28;30.60;90.40
4548;DHT22;2286;51.570;7.090;2023-07-20T15:08:56;32.20;94.70
4548;DHT22;2286;51.570;7.090;2023-07-20T15:11:23;32.10;94.10
4548;DHT22;2286;51.570;7.090;2023-07-20T15:13:50;33.10;96.60
4548;DHT22;2286;51.570;7.090;2023-07-20T15:16:17;32.90;95.80
4548;DHT22;2286;51.570;7.090;2023-07-20T15:18:44;33.50;97.50
4548;DHT22;2286;51.570;7.090;2023-07-20T15:21:11;33.40;96.80
4548;DHT22;2286;51.570;7.090;2023-07-20T15:23:40;32.00;92.80
4548;DHT22;2286;51.570;7.090;2023-07-20T15:26:07;31.00;88.70
4548;DHT22;2286;51.570;7.090;2023-07-20T15:28:34;30.00;81.70
4548;DHT22;2286;51.570;7.090;2023-07-20T15:31:02;29.90;81.50
4548;DHT22;2286;51.570;7.090;2023-07-20T15:33:29;29.40;79.10
4548;DHT22;2286;51.570;7.090;2023-07-20T15:35:56;29.20;78.60
4548;DHT22;2286;51.570;7.090;2023-07-20T15:38:23;28.50;74.00
4548;DHT22;2286;51.570;7.090;2023-07-20T15:40:52;28.30;73.60
4548;DHT22;2286;51.570;7.090;2023-07-20T15:43:19;28.20;73.10
4548;DHT22;2286;51.570;7.090;2023-07-20T15:45:47;28.10;72.40
4548;DHT22;2286;51.570;7.090;2023-07-20T15:48:15;27.80;71.10
4548;DHT22;2286;51.570;7.090;2023-07-20T15:50:42;27.50;69.00
4548;DHT22;2286;51.570;7.090;2023-07-20T15:53:10;27.70;70.70
4548;DHT22;2286;51.570;7.090;2023-07-20T15:55:37;28.00;72.40
4548;DHT22;2286;51.570;7.090;2023-07-20T15:58:05;28.50;74.70
4548;DHT22;2286;51.570;7.090;2023-07-20T16:00:33;29.00;76.90
4548;DHT22;2286;51.570;7.090;2023-07-20T16:03:00;29.30;78.60
4548;DHT22;2286;51.570;7.090;2023-07-20T16:05:27;29.30;78.20
4548;DHT22;2286;51.570;7.090;2023-07-20T16:07:54;29.40;79.20
4548;DHT22;2286;51.570;7.090;2023-07-20T16:10:21;29.90;83.50
4548;DHT22;2286;51.570;7.090;2023-07-20T16:12:48;31.60;90.90
4548;DHT22;2286;51.570;7.090;2023-07-20T16:15:16;33.40;95.50